createdAt,value
2019-05-11T00:05:33.959Z,8.35
2019-05-11T00:11:36.179Z,5.72
2019-05-11T00:17:38.675Z,4.95
2019-05-11T00:23:41.111Z,5.87
2019-05-11T00:29:43.412Z,9.05
2019-05-11T00:35:45.612Z,6.17
2019-05-11T00:41:47.967Z,5.28
2019-05-11T00:47:50.293Z,5.12
2019-05-11T00:53:52.783Z,5.75
2019-05-11T00:59:55.205Z,6.47
2019-05-11T01:05:57.411Z,7.22
2019-05-11T01:11:59.620Z,5.08
2019-05-11T01:18:01.921Z,5.67
2019-05-11T01:24:04.259Z,5.33
2019-05-11T01:30:09.123Z,6.42
2019-05-11T01:36:11.455Z,6.20
2019-05-11T01:42:13.594Z,6.40
2019-05-11T01:48:15.882Z,5.90
2019-05-11T01:54:18.128Z,5.72
2019-05-11T02:00:20.363Z,5.87
2019-05-11T02:06:22.555Z,5.55
2019-05-11T02:12:24.739Z,5.60
2019-05-11T02:18:26.927Z,6.87
2019-05-11T02:24:29.121Z,5.65
2019-05-11T02:30:31.561Z,5.60
2019-05-11T02:36:34.522Z,5.67
2019-05-11T02:42:36.677Z,6.58
2019-05-11T02:48:39.031Z,7.62
2019-05-11T02:54:42.360Z,6.15
2019-05-11T03:00:44.860Z,6.33
2019-05-11T03:06:47.099Z,7.25
2019-05-11T03:12:49.385Z,7.17
2019-05-11T03:18:51.634Z,7.12
2019-05-11T03:24:53.916Z,5.62
2019-05-11T03:30:56.118Z,5.50
2019-05-11T03:36:58.289Z,5.47
2019-05-11T03:43:00.443Z,7.00
2019-05-11T03:49:03.058Z,6.03
2019-05-11T03:55:05.304Z,6.70
2019-05-11T04:01:07.597Z,6.47
2019-05-11T04:07:09.977Z,5.80
2019-05-11T04:13:12.209Z,6.58
2019-05-11T04:19:14.454Z,7.22
2019-05-11T04:25:16.905Z,6.42
2019-05-11T04:31:19.200Z,7.67
2019-05-11T04:37:21.516Z,5.85
2019-05-11T04:43:23.681Z,7.03
2019-05-11T04:49:26.030Z,5.10
2019-05-11T04:55:28.381Z,4.40
2019-05-11T05:01:31.135Z,3.75
2019-05-11T05:07:33.285Z,4.15
2019-05-11T05:13:35.654Z,4.03
2019-05-11T05:19:37.908Z,5.37
2019-05-11T05:25:40.144Z,3.33
2019-05-11T05:31:42.387Z,5.42
2019-05-11T05:37:44.759Z,3.08
2019-05-11T05:43:46.868Z,3.17
2019-05-11T05:49:49.194Z,2.80
2019-05-11T05:55:52.283Z,4.35
2019-05-11T06:01:55.606Z,4.62
2019-05-11T06:07:58.012Z,4.10
2019-05-11T06:14:00.368Z,3.98
2019-05-11T06:20:03.959Z,3.37
2019-05-11T06:26:07.521Z,7.78
2019-05-11T06:32:10.937Z,3.12
2019-05-11T06:38:19.171Z,3.40
2019-05-11T06:44:21.304Z,3.72
2019-05-11T06:50:23.507Z,3.25
2019-05-11T06:56:25.744Z,3.50
2019-05-11T07:02:27.939Z,3.42
2019-05-11T07:08:30.378Z,6.60
2019-05-11T07:14:32.488Z,3.05
2019-05-11T07:20:49.378Z,3.37
2019-05-11T07:26:38.695Z,2.25
2019-05-11T07:32:40.939Z,3.00
2019-05-11T07:38:43.238Z,2.30
2019-05-11T07:44:47.954Z,3.83
2019-05-11T07:50:49.487Z,2.77
2019-05-11T07:56:51.790Z,2.37
2019-05-11T08:02:54.187Z,1.92
2019-05-11T08:08:58.586Z,3.05
2019-05-11T08:15:09.025Z,2.08
2019-05-11T08:21:05.663Z,2.25
2019-05-11T08:27:08.500Z,2.62
2019-05-11T08:33:11.115Z,1.92
2019-05-11T08:39:13.516Z,2.12
2019-05-11T08:45:22.974Z,2.92
2019-05-11T08:51:21.648Z,6.17
2019-05-11T08:57:23.854Z,2.65
2019-05-11T09:03:28.173Z,3.27
2019-05-11T09:09:30.108Z,1.80
2019-05-11T09:15:37.111Z,2.55
2019-05-11T09:21:38.327Z,1.27
2019-05-11T09:27:43.365Z,1.57
2019-05-11T09:33:44.504Z,1.62
2019-05-11T09:39:47.840Z,3.25
2019-05-11T09:45:51.890Z,1.90
2019-05-11T09:51:55.254Z,1.67
2019-05-11T09:57:57.959Z,0.53
2019-05-11T10:04:00.477Z,2.12
2019-05-11T10:10:04.085Z,0.50
2019-05-11T10:16:08.135Z,1.15
2019-05-11T10:22:11.986Z,1.75
2019-05-11T10:28:14.243Z,0.40
2019-05-11T10:34:17.942Z,0.85
2019-05-11T10:40:20.444Z,0.20
2019-05-11T10:46:23.684Z,0.33
2019-05-11T10:52:28.394Z,0.78
2019-05-11T10:58:30.445Z,1.72
2019-05-11T11:04:32.662Z,0.78
2019-05-11T11:10:34.959Z,0.40
2019-05-11T11:16:42.414Z,0.50
2019-05-11T11:22:44.289Z,1.50
2019-05-11T11:28:47.528Z,1.02
2019-05-11T11:34:49.957Z,1.10
2019-05-11T11:40:54.277Z,0.82
2019-05-11T11:46:58.784Z,0.45
2019-05-11T11:53:00.561Z,0.98
2019-05-11T11:59:02.839Z,0.98
2019-05-11T12:05:05.059Z,1.42
2019-05-11T12:11:07.967Z,0.80
2019-05-11T12:17:11.178Z,1.20
2019-05-11T12:23:13.643Z,1.05
2019-05-11T12:29:15.898Z,0.35
2019-05-11T12:35:20.172Z,0.60
2019-05-11T12:41:22.460Z,0.42
2019-05-11T12:47:25.298Z,3.27
2019-05-11T12:53:28.023Z,2.80
2019-05-11T12:59:30.429Z,0.88
2019-05-11T13:05:32.660Z,0.80
2019-05-11T13:11:37.794Z,0.95
2019-05-11T13:17:40.975Z,1.47
2019-05-11T13:23:43.488Z,0.53
2019-05-11T13:29:45.825Z,1.30
2019-05-11T13:35:48.449Z,2.15
2019-05-11T13:41:50.728Z,1.12
2019-05-11T13:47:55.980Z,1.02
2019-05-11T13:53:58.497Z,2.27
2019-05-11T14:00:00.889Z,0.90
2019-05-11T14:06:03.138Z,2.15
2019-05-11T14:12:07.572Z,0.82
2019-05-11T14:18:12.054Z,1.57
2019-05-11T14:24:14.051Z,3.22
2019-05-11T14:30:19.039Z,1.82
2019-05-11T14:36:24.585Z,0.53
2019-05-11T14:42:28.731Z,1.15
2019-05-11T14:48:30.989Z,2.85
2019-05-11T14:54:33.236Z,3.40
2019-05-11T15:00:36.882Z,2.37
2019-05-11T15:06:39.553Z,3.70
2019-05-11T15:12:41.879Z,4.17
2019-05-11T15:18:44.164Z,4.03
2019-05-11T15:24:48.423Z,6.12
2019-05-11T15:30:51.888Z,5.08
2019-05-11T15:36:54.257Z,3.52
2019-05-11T15:42:58.573Z,3.67
2019-05-11T15:49:03.413Z,5.95
2019-05-11T15:55:08.053Z,5.97
2019-05-11T16:01:10.354Z,2.40
2019-05-11T16:07:12.558Z,2.27
2019-05-11T16:13:14.722Z,2.22
2019-05-11T16:19:19.103Z,3.20
2019-05-11T16:25:21.101Z,2.30
2019-05-11T16:31:23.259Z,2.75
2019-05-11T16:37:25.435Z,2.40
2019-05-11T16:43:28.141Z,2.70
2019-05-11T16:49:32.497Z,3.35
2019-05-11T16:55:34.351Z,4.03
2019-05-11T17:01:37.913Z,3.45
2019-05-11T17:07:40.540Z,3.05
2019-05-11T17:13:42.695Z,2.22
2019-05-11T17:19:46.473Z,1.80
2019-05-11T17:25:49.023Z,2.67
2019-05-11T17:31:51.144Z,2.17
2019-05-11T17:37:53.355Z,2.17
2019-05-11T17:43:55.584Z,1.45
2019-05-11T17:50:03.489Z,1.98
2019-05-11T17:56:01.675Z,2.10
2019-05-11T18:02:03.871Z,1.27
2019-05-11T18:08:06.024Z,1.72
2019-05-11T18:14:08.632Z,1.15
2019-05-11T18:20:16.935Z,1.15
2019-05-11T18:26:14.863Z,2.47
2019-05-11T18:32:17.108Z,1.00
2019-05-11T18:38:19.440Z,2.50
2019-05-11T18:44:25.150Z,0.80
2019-05-11T18:50:30.895Z,15.15
2019-05-11T18:56:33.547Z,7.05
2019-05-11T19:02:37.763Z,4.30
2019-05-11T19:08:39.834Z,3.30
2019-05-11T19:14:42.187Z,2.15
2019-05-11T19:20:46.230Z,1.75
2019-05-11T19:26:51.243Z,1.67
2019-05-11T19:32:53.840Z,2.92
2019-05-11T19:38:58.270Z,1.98
2019-05-11T19:45:00.404Z,2.58
2019-05-11T19:51:07.710Z,3.45
2019-05-11T19:57:08.314Z,2.72
2019-05-11T20:03:10.980Z,3.47
2019-05-11T20:09:13.831Z,3.87
2019-05-11T20:15:18.450Z,2.62
2019-05-11T20:21:23.259Z,3.10
2019-05-11T20:27:28.071Z,4.55
2019-05-11T20:33:29.693Z,2.20
2019-05-11T20:39:31.859Z,4.60
2019-05-11T20:45:34.245Z,4.03
2019-05-11T20:51:37.187Z,3.33
2019-05-11T20:57:39.893Z,2.65
2019-05-11T21:03:42.288Z,3.00
2019-05-11T21:09:44.482Z,3.67
2019-05-11T21:15:47.875Z,3.47
2019-05-11T21:21:53.858Z,5.22
2019-05-11T21:27:57.963Z,3.30
2019-05-11T21:34:00.510Z,4.53
2019-05-11T21:40:03.412Z,3.85
2019-05-11T21:46:08.010Z,5.22
2019-05-11T21:52:09.592Z,4.70
2019-05-11T21:58:11.868Z,4.60
2019-05-11T22:04:14.185Z,5.10
2019-05-11T22:10:17.739Z,3.30
2019-05-11T22:16:20.016Z,5.35
2019-05-11T22:22:25.243Z,5.05
2019-05-11T22:28:28.255Z,4.40
2019-05-11T22:34:30.196Z,6.28
2019-05-11T22:40:32.463Z,3.90
2019-05-11T22:46:34.835Z,4.67
2019-05-11T22:52:39.766Z,3.47
2019-05-11T22:58:41.072Z,3.60
2019-05-11T23:04:43.219Z,6.05
2019-05-11T23:10:47.773Z,7.10
2019-05-11T23:16:49.897Z,6.58
2019-05-11T23:22:57.998Z,6.58
2019-05-11T23:28:57.989Z,6.83
2019-05-11T23:35:00.216Z,7.03
2019-05-11T23:41:02.348Z,5.65
2019-05-11T23:47:04.772Z,6.40
2019-05-11T23:53:10.079Z,9.33
2019-05-11T23:59:10.956Z,10.23
